Time;durP1;ratioP1;P1;durP2;ratioP2;P2;SDS_P1;SDS_P2;PMS_P1;PMS_P2;Temp;Humidity;BMP_temperature;BMP_pressure;BME280_temperature;BME280_humidity;BME280_pressure;Samples;Min_cycle;Max_cycle;Signal;HPM_P1;HPM_P2
2023/06/08 00:00:38;;;;;;;11.50;5.72;;;;;;;19.94;45.02;101775.03;4990314;28;108969;-65
2023/06/08 00:03:06;;;;;;;13.27;5.90;;;;;;;19.90;45.19;101773.53;4988964;28;123772;-66
2023/06/08 00:05:43;;;;;;;14.05;5.85;;;;;;;19.87;45.24;101768.34;4990633;28;122844;-65
2023/06/08 00:08:11;;;;;;;14.93;6.53;;;;;;;19.84;45.29;101768.59;4989646;28;109418;-65
2023/06/08 00:10:45;;;;;;;12.60;5.88;;;;;;;19.77;45.66;101767.28;4989836;28;109119;-66
2023/06/08 00:13:13;;;;;;;11.45;5.65;;;;;;;19.74;45.59;101778.25;4989604;28;123983;-66
2023/06/08 00:15:40;;;;;;;14.15;5.75;;;;;;;19.69;45.74;101775.00;4988917;28;124784;-66
2023/06/08 00:18:08;;;;;;;13.77;6.32;;;;;;;19.65;45.93;101775.19;4987262;28;109304;-66
2023/06/08 00:20:36;;;;;;;12.70;6.50;;;;;;;19.61;45.87;101776.38;4991061;28;108272;-66
2023/06/08 00:23:04;;;;;;;15.35;6.20;;;;;;;19.55;46.02;101774.13;4991294;28;124103;-66
2023/06/08 00:25:32;;;;;;;12.23;6.05;;;;;;;19.51;46.27;101767.22;4987985;28;123688;-66
2023/06/08 00:27:59;;;;;;;13.43;6.28;;;;;;;19.48;46.27;101767.44;4990198;28;110198;-66
2023/06/08 00:30:26;;;;;;;14.38;6.55;;;;;;;19.44;46.43;101760.56;4990778;28;109188;-66
2023/06/08 00:32:53;;;;;;;14.93;6.43;;;;;;;19.40;46.40;101761.69;4988871;28;123427;-66
2023/06/08 00:35:21;;;;;;;13.13;6.00;;;;;;;19.36;46.59;101758.34;4990309;28;123459;-66
2023/06/08 00:37:48;;;;;;;12.52;6.10;;;;;;;19.32;46.62;101766.75;4989449;28;108391;-66
2023/06/08 00:40:15;;;;;;;14.13;6.68;;;;;;;19.28;46.59;101765.22;4990408;28;109068;-66
2023/06/08 00:42:43;;;;;;;12.82;6.63;;;;;;;19.22;46.73;101762.00;4988977;28;123918;-66
2023/06/08 00:45:13;;;;;;;15.23;6.32;;;;;;;19.16;46.79;101757.03;4976650;28;123573;-66
2023/06/08 00:47:40;;;;;;;12.80;6.00;;;;;;;19.10;46.90;101762.81;4991271;28;108266;-66
2023/06/08 00:50:09;;;;;;;13.32;6.18;;;;;;;19.05;46.86;101748.84;4988939;28;109205;-65
2023/06/08 00:52:39;;;;;;;14.40;6.03;;;;;;;19.02;47.18;101749.03;4989872;28;123339;-65
2023/06/08 00:55:07;;;;;;;14.90;6.70;;;;;;;18.98;47.23;101747.50;4989535;28;124074;-65
2023/06/08 00:57:36;;;;;;;18.27;6.32;;;;;;;18.92;47.53;101742.56;4990865;28;108081;-66
2023/06/08 01:00:04;;;;;;;15.77;6.30;;;;;;;18.91;47.81;101740.81;4991662;28;108824;-66
2023/06/08 01:02:34;;;;;;;19.10;6.60;;;;;;;18.86;47.57;101733.94;4989174;28;124144;-65
2023/06/08 01:05:02;;;;;;;14.85;6.78;;;;;;;18.83;47.45;101744.00;4993745;28;124131;-66
2023/06/08 01:07:59;;;;;;;19.35;6.68;;;;;;;18.76;47.55;101743.53;4994293;28;108643;-66
2023/06/08 01:10:37;;;;;;;16.13;6.97;;;;;;;18.69;48.05;101742.22;4991831;28;109015;-64
2023/06/08 01:13:35;;;;;;;18.30;6.82;;;;;;;18.64;47.72;101744.31;4989944;28;124358;-64
2023/06/08 01:16:04;;;;;;;14.38;6.82;;;;;;;18.57;47.92;101742.97;4990969;28;124308;-65
2023/06/08 01:18:38;;;;;;;12.05;6.78;;;;;;;18.53;48.03;101749.50;4976337;28;109151;-65
2023/06/08 01:21:30;;;;;;;16.73;7.10;;;;;;;18.46;47.93;101746.38;4992234;28;110212;-65
2023/06/08 01:24:14;;;;;;;14.98;7.03;;;;;;;18.42;48.18;101745.72;5008706;28;123098;-65
2023/06/08 01:26:44;;;;;;;16.70;7.07;;;;;;;18.38;48.47;101749.53;4990302;28;123788;-65
2023/06/08 01:29:13;;;;;;;16.10;7.25;;;;;;;18.35;48.67;101744.38;4992511;28;109524;-65
2023/06/08 01:31:40;;;;;;;16.80;7.13;;;;;;;18.33;48.41;101746.28;4992070;28;109120;-65
2023/06/08 01:34:11;;;;;;;13.70;7.28;;;;;;;18.31;48.90;101742.84;4989890;28;123611;-65
2023/06/08 01:36:51;;;;;;;15.20;6.97;;;;;;;18.28;48.84;101737.66;4990038;28;124014;-66
2023/06/08 01:39:27;;;;;;;13.23;7.50;;;;;;;18.25;49.11;101737.84;4991240;28;108956;-66
2023/06/08 01:41:58;;;;;;;13.55;6.72;;;;;;;18.23;48.90;101739.78;4994200;28;108994;-66
2023/06/08 01:44:28;;;;;;;19.05;8.02;;;;;;;18.20;49.11;101730.13;4991790;28;123923;-66
2023/06/08 01:46:58;;;;;;;15.15;7.22;;;;;;;18.17;49.16;101734.81;4992039;28;124278;-65
2023/06/08 01:49:28;;;;;;;18.27;7.40;;;;;;;18.14;49.27;101740.34;4992001;28;109647;-66
2023/06/08 01:51:56;;;;;;;15.02;7.63;;;;;;;18.11;49.23;101741.41;4991381;28;109478;-66
2023/06/08 01:54:24;;;;;;;14.50;7.22;;;;;;;18.09;49.54;101733.47;4992398;28;123876;-66
2023/06/08 01:56:51;;;;;;;14.75;7.28;;;;;;;18.07;49.44;101734.53;4992045;28;123332;-66
2023/06/08 01:59:19;;;;;;;16.08;6.75;;;;;;;18.05;49.54;101726.56;4993329;28;108510;-66
2023/06/08 02:01:46;;;;;;;18.13;7.72;;;;;;;18.02;49.58;101726.75;4993255;28;108771;-66
2023/06/08 02:04:13;;;;;;;15.60;7.72;;;;;;;18.01;49.55;101729.56;4992193;28;124759;-66
2023/06/08 02:06:41;;;;;;;16.42;7.68;;;;;;;17.99;49.64;101737.69;4992781;28;122958;-66
2023/06/08 02:09:08;;;;;;;15.40;8.25;;;;;;;17.97;49.71;101723.50;4992828;28;109333;-66
2023/06/08 02:11:35;;;;;;;18.00;7.47;;;;;;;17.94;49.92;101729.06;4991241;28;110264;-66
2023/06/08 02:14:03;;;;;;;14.93;8.05;;;;;;;17.90;49.81;101727.53;4991603;28;123487;-66
2023/06/08 02:16:33;;;;;;;17.65;8.10;;;;;;;17.86;49.90;101728.69;4992835;28;123055;-65
2023/06/08 02:19:01;;;;;;;14.65;7.22;;;;;;;17.82;49.88;101724.41;4990680;28;108891;-66
2023/06/08 02:21:28;;;;;;;16.08;8.00;;;;;;;17.77;50.19;101716.66;4992522;28;109388;-66
2023/06/08 02:23:55;;;;;;;20.17;7.95;;;;;;;17.70;49.95;101721.53;4991495;28;124868;-66
2023/06/08 02:26:23;;;;;;;19.65;7.80;;;;;;;17.64;50.25;101713.88;4991504;28;123793;-66
2023/06/08 02:28:50;;;;;;;14.60;7.40;;;;;;;17.58;50.23;101722.28;4993149;28;108530;-66
2023/06/08 02:31:18;;;;;;;16.23;8.23;;;;;;;17.54;50.37;101715.41;4977160;28;108092;-66
2023/06/08 02:33:45;;;;;;;18.40;8.20;;;;;;;17.50;50.41;101714.72;4991150;28;124155;-65
2023/06/08 02:36:12;;;;;;;18.48;8.38;;;;;;;17.47;50.45;101719.41;4991590;28;123035;-64
2023/06/08 02:38:41;;;;;;;15.40;8.23;;;;;;;17.43;50.61;101717.84;5007272;28;107869;-65
2023/06/08 02:41:08;;;;;;;20.35;7.45;;;;;;;17.40;50.67;101723.38;4992689;28;108050;-64
2023/06/08 02:43:39;;;;;;;17.10;8.25;;;;;;;17.36;50.54;101727.22;4991310;28;123764;-64
2023/06/08 02:46:07;;;;;;;16.08;7.68;;;;;;;17.31;50.79;101714.97;4991927;28;124371;-64
2023/06/08 02:48:35;;;;;;;16.95;8.02;;;;;;;17.29;50.63;101721.34;4992797;28;108968;-65
2023/06/08 02:51:02;;;;;;;18.83;8.40;;;;;;;17.26;50.92;101717.03;4993223;28;108957;-64
2023/06/08 02:53:29;;;;;;;15.50;7.75;;;;;;;17.25;50.93;101719.81;4991176;28;123804;-65
2023/06/08 02:55:56;;;;;;;20.88;8.23;;;;;;;17.21;50.88;101718.25;4992064;28;122858;-65
2023/06/08 02:58:26;;;;;;;15.77;8.20;;;;;;;17.17;51.12;101717.59;4990518;28;109199;-66
2023/06/08 03:00:53;;;;;;;19.55;8.20;;;;;;;17.12;51.28;101715.19;4990838;28;111517;-69
2023/06/08 03:03:48;;;;;;;15.70;8.43;;;;;;;17.08;51.18;101724.34;4991239;28;124136;-65
2023/06/08 03:06:18;;;;;;;15.48;7.97;;;;;;;17.05;51.22;101719.16;4991409;28;123046;-65
2023/06/08 03:08:54;;;;;;;14.93;7.97;;;;;;;17.00;51.35;101720.38;4991832;28;108409;-66
2023/06/08 03:11:23;;;;;;;21.38;8.98;;;;;;;16.95;51.34;101714.44;4991666;28;109502;-65
2023/06/08 03:13:51;;;;;;;15.50;8.90;;;;;;;16.91;51.49;101709.28;4989857;28;123750;-66
2023/06/08 03:16:20;;;;;;;19.63;8.80;;;;;;;16.90;51.56;101712.91;4989186;28;124641;-66
2023/06/08 03:18:48;;;;;;;18.75;8.45;;;;;;;16.88;51.73;101711.28;4974492;28;107654;-66
2023/06/08 03:21:18;;;;;;;15.30;8.27;;;;;;;16.85;51.89;101706.94;4989274;28;109020;-66
2023/06/08 03:23:48;;;;;;;16.08;8.52;;;;;;;16.84;51.73;101710.56;4990058;28;123340;-66
2023/06/08 03:26:17;;;;;;;23.13;9.35;;;;;;;16.82;51.82;101715.16;4991087;28;122646;-64
2023/06/08 03:28:45;;;;;;;17.52;9.57;;;;;;;16.80;51.96;101714.34;4990755;28;109259;-64
2023/06/08 03:31:13;;;;;;;15.45;8.65;;;;;;;16.80;51.92;101714.34;4990293;28;109082;-64
2023/06/08 03:33:46;;;;;;;14.93;8.20;;;;;;;16.80;52.02;101714.34;4989711;28;123121;-65
2023/06/08 03:36:15;;;;;;;17.90;8.93;;;;;;;16.78;52.03;101710.88;4971519;28;123257;-65
2023/06/08 03:38:44;;;;;;;16.35;8.73;;;;;;;16.78;52.01;101716.22;4990994;28;108387;-65
2023/06/08 03:41:14;;;;;;;17.63;8.60;;;;;;;16.76;52.08;101712.78;4991717;28;108099;-66
2023/06/08 03:43:44;;;;;;;17.75;8.65;;;;;;;16.73;52.20;101708.47;4990732;28;125927;-65
2023/06/08 03:46:12;;;;;;;16.95;8.50;;;;;;;16.72;52.17;101703.22;4991043;28;123084;-65
2023/06/08 03:48:40;;;;;;;19.73;8.55;;;;;;;16.70;52.05;101711.31;4991232;28;109482;-65
2023/06/08 03:51:08;;;;;;;17.48;9.55;;;;;;;16.67;52.26;101713.31;4990930;28;108836;-65
2023/06/08 03:53:36;;;;;;;18.40;9.55;;;;;;;16.67;52.30;101713.31;4990086;28;123328;-65
2023/06/08 03:56:04;;;;;;;21.30;9.90;;;;;;;16.66;52.41;101711.59;4974547;28;123051;-65
2023/06/08 03:58:34;;;;;;;21.23;9.10;;;;;;;16.65;52.47;101699.16;4991404;28;108308;-65
2023/06/08 04:01:03;;;;;;;20.00;9.38;;;;;;;16.64;52.41;101702.78;4991128;28;108138;-65
2023/06/08 04:03:30;;;;;;;19.30;9.43;;;;;;;16.66;52.48;101719.63;4988023;28;124208;-66
2023/06/08 04:05:57;;;;;;;21.60;9.35;;;;;;;16.67;52.63;101707.94;4991191;28;122904;-66
2023/06/08 04:08:26;;;;;;;17.38;8.85;;;;;;;16.66;52.49;101707.09;4990249;28;107882;-67
2023/06/08 04:10:54;;;;;;;19.10;8.48;;;;;;;16.67;52.64;101703.47;4989453;28;107855;-67
2023/06/08 04:13:21;;;;;;;18.88;8.98;;;;;;;16.71;52.64;101709.53;4989652;28;123108;-64
2023/06/08 04:15:48;;;;;;;16.33;9.60;;;;;;;16.74;52.84;101706.66;4990752;28;123025;-64
2023/06/08 04:18:16;;;;;;;20.73;9.48;;;;;;;16.77;52.90;101703.81;4987734;28;108433;-65
2023/06/08 04:20:45;;;;;;;19.83;9.35;;;;;;;16.81;52.82;101700.00;4990801;28;108233;-65
2023/06/08 04:23:13;;;;;;;20.55;9.50;;;;;;;16.84;52.83;101699.88;4974005;28;124032;-64
2023/06/08 04:25:41;;;;;;;19.98;9.38;;;;;;;16.86;52.82;101703.31;4990712;28;123128;-67
2023/06/08 04:28:08;;;;;;;20.50;9.63;;;;;;;16.89;52.85;101703.13;4975356;28;108804;-67
2023/06/08 04:30:36;;;;;;;18.23;8.90;;;;;;;16.91;52.86;101701.25;4989932;28;109001;-67
2023/06/08 04:33:03;;;;;;;19.98;10.45;;;;;;;16.93;52.70;101702.03;4990648;28;123322;-67
2023/06/08 04:35:32;;;;;;;17.25;9.20;;;;;;;16.99;52.75;101691.88;4990325;28;122945;-67
2023/06/08 04:38:01;;;;;;;18.95;9.23;;;;;;;17.00;52.74;101693.63;4990890;28;109374;-67
2023/06/08 04:40:33;;;;;;;21.17;9.20;;;;;;;17.02;52.78;101691.72;4978135;28;109160;-66
2023/06/08 04:43:02;;;;;;;17.13;9.00;;;;;;;17.04;52.79;101700.53;4992319;28;123073;-67
2023/06/08 04:45:34;;;;;;;20.17;9.60;;;;;;;17.07;52.72;101700.34;4977123;28;123609;-66
2023/06/08 04:48:02;;;;;;;21.67;9.48;;;;;;;17.13;52.84;101699.97;4994687;28;108952;-67
2023/06/08 04:50:29;;;;;;;19.58;9.73;;;;;;;17.19;53.01;101698.75;4993044;28;108438;-66
2023/06/08 04:52:57;;;;;;;17.30;9.27;;;;;;;17.26;52.75;101698.31;4994072;28;123601;-66
2023/06/08 04:55:24;;;;;;;18.52;8.90;;;;;;;17.34;52.68;101707.69;4993798;28;123711;-67
2023/06/08 04:57:51;;;;;;;18.77;9.27;;;;;;;17.40;52.59;101704.63;4994397;28;108590;-67
2023/06/08 05:00:19;;;;;;;16.98;8.90;;;;;;;17.46;52.60;101701.59;4992969;28;109198;-66
2023/06/08 05:02:46;;;;;;;18.17;9.88;;;;;;;17.53;52.57;101708.31;4991919;28;123969;-66
2023/06/08 05:05:14;;;;;;;17.60;9.52;;;;;;;17.56;52.34;101700.09;4993320;28;122632;-64
2023/06/08 05:07:42;;;;;;;18.92;9.27;;;;;;;17.59;52.35;101696.34;4991992;28;108461;-65
2023/06/08 05:10:09;;;;;;;19.95;9.43;;;;;;;17.62;52.15;101702.38;4992201;28;108267;-65
2023/06/08 05:12:37;;;;;;;17.55;9.52;;;;;;;17.66;52.29;101698.56;4993655;28;124097;-65
2023/06/08 05:15:05;;;;;;;18.02;10.07;;;;;;;17.70;52.06;101699.22;4991337;28;123758;-64
2023/06/08 05:17:32;;;;;;;19.52;9.57;;;;;;;17.71;52.18;101696.47;4991871;28;109008;-65
2023/06/08 05:20:00;;;;;;;19.98;9.80;;;;;;;17.74;52.03;101694.56;4994112;28;108959;-64
2023/06/08 05:22:28;;;;;;;18.50;9.70;;;;;;;17.77;52.04;101702.41;4988661;28;124788;-65
2023/06/08 05:24:55;;;;;;;15.48;9.75;;;;;;;17.79;51.97;101703.19;4994016;28;123392;-64
2023/06/08 05:27:22;;;;;;;17.23;10.18;;;;;;;17.79;51.83;101703.19;4991513;28;110277;-65
2023/06/08 05:29:49;;;;;;;19.02;9.90;;;;;;;17.83;52.02;101699.34;4993054;28;110444;-64
2023/06/08 05:32:17;;;;;;;19.00;10.00;;;;;;;17.90;52.24;101700.72;4991015;28;124091;-64
2023/06/08 05:34:44;;;;;;;17.20;10.18;;;;;;;17.95;52.09;101704.00;4992996;28;123636;-64
2023/06/08 05:37:11;;;;;;;16.92;9.55;;;;;;;18.01;52.02;101703.59;4989915;28;109393;-64
2023/06/08 05:39:38;;;;;;;20.50;10.35;;;;;;;18.05;51.81;101705.13;4989862;28;108892;-65
2023/06/08 05:42:06;;;;;;;17.35;10.38;;;;;;;18.08;51.79;101688.84;4991236;28;124812;-65
2023/06/08 05:44:33;;;;;;;17.83;10.23;;;;;;;18.14;51.67;101692.09;4992078;28;123040;-65
2023/06/08 05:47:02;;;;;;;18.08;10.35;;;;;;;18.18;51.90;101689.13;4992398;28;109262;-65
2023/06/08 05:49:29;;;;;;;19.30;10.77;;;;;;;18.23;51.79;101703.13;4975551;28;109140;-66
2023/06/08 05:51:57;;;;;;;19.15;10.13;;;;;;;18.27;51.55;101698.38;4992982;28;123836;-66
2023/06/08 05:54:24;;;;;;;18.50;10.40;;;;;;;18.31;51.52;101699.94;4990463;28;122716;-66
2023/06/08 05:56:51;;;;;;;18.63;10.50;;;;;;;18.35;51.59;101697.94;4990983;28;109106;-66
2023/06/08 05:59:19;;;;;;;19.88;10.50;;;;;;;18.43;51.44;101699.13;4992110;28;109951;-64
2023/06/08 06:01:47;;;;;;;18.10;10.13;;;;;;;18.50;51.23;101694.25;4989619;28;123924;-65
2023/06/08 06:04:15;;;;;;;15.43;10.40;;;;;;;18.56;51.41;101698.34;4991767;28;125183;-66
2023/06/08 06:07:05;;;;;;;19.70;10.75;;;;;;;18.63;51.18;101694.31;4992933;28;108640;-66
2023/06/08 06:09:32;;;;;;;20.25;10.63;;;;;;;18.69;50.86;101693.91;4990803;28;110914;-65
2023/06/08 06:12:00;;;;;;;17.02;11.07;;;;;;;18.74;50.93;101689.09;4992027;28;123223;-65
2023/06/08 06:14:27;;;;;;;16.83;11.10;;;;;;;18.80;51.00;101686.03;4990541;28;124650;-65
2023/06/08 06:16:55;;;;;;;18.33;10.82;;;;;;;18.88;50.98;101687.34;4991194;28;110276;-65
2023/06/08 06:19:37;;;;;;;18.75;10.90;;;;;;;18.95;50.71;101694.00;4992942;28;109140;-65
2023/06/08 06:22:06;;;;;;;17.73;10.57;;;;;;;19.00;51.06;101697.25;4990714;28;124697;-65
2023/06/08 06:24:34;;;;;;;21.58;11.45;;;;;;;19.10;50.70;101693.00;4992090;28;123980;-65
2023/06/08 06:27:03;;;;;;;17.40;10.82;;;;;;;19.21;50.67;101695.81;4993067;28;109887;-64
2023/06/08 06:29:30;;;;;;;19.55;11.10;;;;;;;19.33;50.43;101699.50;4994007;28;109983;-64
2023/06/08 06:31:57;;;;;;;23.55;11.68;;;;;;;19.42;50.33;101697.97;4990243;28;123578;-64
2023/06/08 06:34:25;;;;;;;19.58;11.43;;;;;;;19.49;50.30;101699.28;4992914;28;124776;-65
2023/06/08 06:36:53;;;;;;;16.40;10.90;;;;;;;19.60;50.28;101696.72;4991285;28;109294;-65
2023/06/08 06:39:20;;;;;;;20.15;11.90;;;;;;;19.70;50.34;101702.31;4990642;28;110141;-66
2023/06/08 06:41:48;;;;;;;22.00;10.95;;;;;;;19.82;50.17;101700.63;4989676;28;124656;-66
2023/06/08 06:44:19;;;;;;;20.33;11.63;;;;;;;19.94;50.26;101705.13;4991530;28;123684;-66
2023/06/08 06:46:46;;;;;;;19.40;11.43;;;;;;;20.11;49.97;101713.81;4991924;28;109132;-67
2023/06/08 06:49:14;;;;;;;20.35;11.93;;;;;;;20.26;49.67;101710.03;4993227;28;109348;-65
2023/06/08 06:51:41;;;;;;;19.65;11.40;;;;;;;20.35;49.52;101709.38;4990482;28;124346;-67
2023/06/08 06:54:09;;;;;;;18.13;11.75;;;;;;;20.45;49.31;101703.31;4991613;28;124833;-66
2023/06/08 06:56:36;;;;;;;22.80;11.73;;;;;;;20.52;49.00;101709.97;4990721;28;109729;-65
2023/06/08 06:59:04;;;;;;;18.83;12.10;;;;;;;20.60;48.92;101713.00;4991082;28;109695;-65
2023/06/08 07:01:35;;;;;;;20.42;12.20;;;;;;;20.68;48.89;101716.00;4989472;28;124244;-64
2023/06/08 07:04:04;;;;;;;20.63;12.30;;;;;;;20.77;48.63;101720.66;4989968;28;124201;-64
2023/06/08 07:06:32;;;;;;;18.92;11.93;;;;;;;20.83;48.69;101708.56;4990843;28;109942;-65
2023/06/08 07:09:00;;;;;;;22.23;12.40;;;;;;;20.88;48.39;101711.78;4991428;28;110670;-64
2023/06/08 07:11:27;;;;;;;17.73;11.48;;;;;;;20.98;48.36;101711.97;4990347;28;123959;-66
2023/06/08 07:13:54;;;;;;;18.48;11.80;;;;;;;21.09;48.47;101709.31;4991216;28;123807;-66
2023/06/08 07:16:22;;;;;;;23.33;12.07;;;;;;;21.19;48.18;101704.97;4990014;28;108494;-66
2023/06/08 07:18:53;;;;;;;17.42;11.48;;;;;;;21.30;48.03;101700.56;4990374;28;109731;-66
2023/06/08 07:21:21;;;;;;;21.63;12.25;;;;;;;21.39;47.81;101699.88;4978119;28;123984;-67
2023/06/08 07:23:51;;;;;;;25.42;12.63;;;;;;;21.41;47.71;101702.44;4991244;28;123764;-67
2023/06/08 07:26:38;;;;;;;20.65;12.32;;;;;;;21.39;47.74;101699.88;4992121;28;109439;-66
2023/06/08 07:29:05;;;;;;;18.45;11.65;;;;;;;21.41;47.61;101705.13;4990297;28;110290;-66
2023/06/08 07:31:34;;;;;;;19.75;11.68;;;;;;;21.43;47.55;101704.03;4991975;28;123550;-66
2023/06/08 07:34:02;;;;;;;17.88;11.70;;;;;;;21.48;47.64;101693.78;4991515;28;124257;-67
2023/06/08 07:36:29;;;;;;;23.75;11.50;;;;;;;21.63;47.83;101690.88;4992401;28;108231;-67
2023/06/08 07:38:56;;;;;;;16.65;11.70;;;;;;;21.77;47.49;101693.34;4990595;28;110049;-66
2023/06/08 07:41:27;;;;;;;18.95;11.93;;;;;;;21.90;47.50;101699.47;4985354;28;124333;-65
2023/06/08 07:43:55;;;;;;;18.05;11.93;;;;;;;22.03;47.19;101687.72;4989905;28;122932;-65
2023/06/08 07:46:23;;;;;;;19.45;12.32;;;;;;;22.15;46.97;101686.72;4991547;28;109528;-65
2023/06/08 07:48:51;;;;;;;20.25;11.95;;;;;;;22.26;46.82;101684.03;4991559;28;110686;-65
2023/06/08 07:51:18;;;;;;;19.77;11.60;;;;;;;22.37;46.84;101690.41;4989358;28;124074;-64
2023/06/08 07:53:45;;;;;;;19.52;11.32;;;;;;;22.47;46.82;101694.06;4991062;28;124041;-65
2023/06/08 07:56:13;;;;;;;15.35;11.38;;;;;;;22.52;46.29;101683.75;4990129;28;110144;-64
2023/06/08 07:58:40;;;;;;;20.10;11.88;;;;;;;22.56;46.23;101690.63;4992164;28;109610;-64
2023/06/08 08:01:07;;;;;;;18.45;11.32;;;;;;;22.63;46.21;101686.44;4991837;28;125109;-65
2023/06/08 08:03:39;;;;;;;21.77;12.50;;;;;;;22.73;46.08;101686.50;4989990;28;123991;-65
2023/06/08 08:06:09;;;;;;;18.90;11.88;;;;;;;22.81;46.06;101688.56;4990160;28;109510;-65
2023/06/08 08:08:37;;;;;;;18.33;11.73;;;;;;;22.88;45.96;101689.78;4990493;28;109692;-64
2023/06/08 08:11:04;;;;;;;17.83;12.30;;;;;;;22.94;45.62;101689.25;4989673;28;124833;-65
2023/06/08 08:13:31;;;;;;;16.27;11.50;;;;;;;22.99;45.39;101692.44;4994637;28;124402;-65
2023/06/08 08:15:59;;;;;;;17.85;11.48;;;;;;;23.01;45.15;101706.66;4996394;28;109076;-65
2023/06/08 08:18:26;;;;;;;17.77;11.55;;;;;;;23.01;45.05;101695.84;4993852;28;110068;-65
2023/06/08 08:20:53;;;;;;;19.38;11.82;;;;;;;23.05;45.25;101702.75;4992775;28;124376;-64
2023/06/08 08:23:20;;;;;;;17.95;11.52;;;;;;;23.13;45.16;101697.56;4994000;28;123714;-64
2023/06/08 08:25:48;;;;;;;22.55;12.27;;;;;;;23.22;45.16;101703.16;4995267;28;109244;-65
2023/06/08 08:28:15;;;;;;;18.90;12.05;;;;;;;23.26;45.15;101700.09;4993606;28;110185;-64
2023/06/08 08:30:42;;;;;;;18.08;12.07;;;;;;;23.27;44.87;101700.94;4993002;28;124940;-65
2023/06/08 08:33:09;;;;;;;19.40;11.95;;;;;;;23.25;44.53;101703.78;4993253;28;124709;-65
2023/06/08 08:35:37;;;;;;;20.92;12.18;;;;;;;23.25;44.60;101702.91;4992798;28;109117;-65
2023/06/08 08:38:05;;;;;;;18.90;12.82;;;;;;;23.29;44.91;101699.81;4990528;28;109950;-65
2023/06/08 08:40:32;;;;;;;19.77;10.98;;;;;;;23.40;44.88;101696.19;4992721;28;123056;-65
2023/06/08 08:43:22;;;;;;;18.25;11.05;;;;;;;23.52;44.68;101700.53;4992849;28;124366;-65
2023/06/08 08:45:51;;;;;;;20.30;12.23;;;;;;;23.64;44.45;101692.34;4986905;28;110375;-65
2023/06/08 08:48:22;;;;;;;18.25;10.98;;;;;;;23.66;43.99;101695.78;4993162;28;109901;-65
2023/06/08 08:50:53;;;;;;;14.77;10.48;;;;;;;23.66;43.76;101696.66;4992637;28;124542;-65
2023/06/08 08:53:27;;;;;;;15.48;11.30;;;;;;;23.63;43.64;101696.06;4992938;28;124402;-65
2023/06/08 08:55:55;;;;;;;15.85;11.68;;;;;;;23.59;43.85;101689.19;4995431;28;109277;-65
2023/06/08 08:58:22;;;;;;;17.85;11.45;;;;;;;23.57;43.86;101696.59;4993267;28;109637;-64
2023/06/08 09:00:51;;;;;;;19.98;12.05;;;;;;;23.51;43.52;101688.00;4992460;28;124645;-64
2023/06/08 09:03:18;;;;;;;17.90;12.07;;;;;;;23.42;43.33;101694.22;4993408;28;124015;-65
2023/06/08 09:05:50;;;;;;;18.42;11.88;;;;;;;23.31;43.60;101687.00;4994510;28;109369;-64
2023/06/08 09:08:18;;;;;;;19.02;11.00;;;;;;;23.18;43.31;101696.31;4990703;28;110288;-64
2023/06/08 09:11:00;;;;;;;22.50;11.60;;;;;;;22.98;43.34;101685.34;4992282;28;123987;-64
2023/06/08 09:13:27;;;;;;;20.48;11.45;;;;;;;22.84;43.41;101683.78;4988022;28;125339;-64
2023/06/08 09:15:54;;;;;;;20.13;11.32;;;;;;;22.75;43.54;101695.34;4991217;28;110037;-64
2023/06/08 09:18:22;;;;;;;16.08;10.98;;;;;;;22.67;43.63;101698.69;4992326;28;110863;-65
2023/06/08 09:20:51;;;;;;;17.08;11.43;;;;;;;22.61;43.86;101704.59;4992538;28;124086;-65
2023/06/08 09:23:24;;;;;;;17.77;10.88;;;;;;;22.60;44.13;101702.88;4984919;28;124160;-67
2023/06/08 09:25:53;;;;;;;18.10;10.97;;;;;;;22.62;44.20;101695.53;4994445;28;108327;-67
2023/06/08 09:28:28;;;;;;;16.38;10.32;;;;;;;22.65;44.10;101684.44;4988380;28;110248;-69
2023/06/08 09:30:57;;;;;;;15.98;10.50;;;;;;;22.67;44.22;101687.88;4993395;28;123185;-67
2023/06/08 09:33:27;;;;;;;16.60;9.85;;;;;;;22.70;44.07;101676.84;4979119;28;125093;-66
2023/06/08 09:35:57;;;;;;;15.35;9.55;;;;;;;22.77;44.26;101681.72;4992427;28;110495;-68
2023/06/08 09:38:29;;;;;;;15.50;9.85;;;;;;;22.85;44.05;101673.81;4994041;28;109158;-66
2023/06/08 09:41:22;;;;;;;15.85;9.77;;;;;;;22.90;43.92;101671.59;4991725;28;124937;-66
2023/06/08 09:43:51;;;;;;;16.88;9.50;;;;;;;22.95;44.05;101674.78;4990621;28;124067;-66
2023/06/08 09:46:55;;;;;;;15.02;10.23;;;;;;;23.01;43.73;101668.84;4985619;28;109263;-67
2023/06/08 09:49:23;;;;;;;17.80;10.20;;;;;;;23.04;43.64;101668.63;4983290;28;109703;-66
2023/06/08 09:51:51;;;;;;;17.40;10.82;;;;;;;23.09;43.75;101677.22;4990892;28;124742;-66
2023/06/08 09:54:25;;;;;;;18.33;10.02;;;;;;;23.18;43.86;101669.28;4992879;28;123687;-68
2023/06/08 09:56:57;;;;;;;18.60;9.75;;;;;;;23.27;44.01;101668.50;4990534;28;109419;-68
2023/06/08 09:59:37;;;;;;;15.30;9.68;;;;;;;23.40;43.86;101666.47;4993507;28;109431;-68
2023/06/08 10:02:23;;;;;;;14.52;9.63;;;;;;;23.59;43.92;101656.75;4990963;28;123150;-68
2023/06/08 10:04:55;;;;;;;14.32;10.02;;;;;;;23.72;43.55;101660.09;4992669;28;123224;-68
2023/06/08 10:07:29;;;;;;;16.95;10.63;;;;;;;23.79;43.32;101661.28;4989803;28;108336;-69
2023/06/08 10:10:13;;;;;;;14.75;9.63;;;;;;;23.85;43.70;101655.34;4993248;28;109967;-68
2023/06/08 10:12:41;;;;;;;15.27;10.40;;;;;;;23.99;43.48;101658.66;4993333;28;124163;-66
2023/06/08 10:15:10;;;;;;;16.52;10.23;;;;;;;24.12;43.37;101643.03;4990010;28;124192;-67
2023/06/08 10:17:39;;;;;;;16.60;9.82;;;;;;;24.28;43.01;101643.38;4991740;28;108863;-66
2023/06/08 10:20:06;;;;;;;15.35;9.93;;;;;;;24.43;43.23;101645.66;4986123;28;109191;-66
2023/06/08 10:22:36;;;;;;;15.30;9.70;;;;;;;24.55;42.97;101632.91;4993807;28;124447;-66
2023/06/08 10:25:06;;;;;;;15.20;9.57;;;;;;;24.72;43.03;101643.00;4990592;28;124289;-69
2023/06/08 10:27:36;;;;;;;15.00;9.65;;;;;;;24.94;42.91;101639.16;4990921;28;110578;-68
2023/06/08 10:30:05;;;;;;;13.32;8.85;;;;;;;25.15;42.22;101635.44;4991820;28;110138;-69
2023/06/08 10:32:35;;;;;;;13.23;9.05;;;;;;;25.29;41.75;101621.44;4991161;28;124373;-67
2023/06/08 10:35:06;;;;;;;13.15;8.93;;;;;;;25.33;41.57;101622.00;4989538;28;123722;-67
2023/06/08 10:37:37;;;;;;;15.32;8.95;;;;;;;25.36;41.81;101622.56;4992103;28;109492;-67
2023/06/08 10:40:09;;;;;;;13.95;9.30;;;;;;;25.42;41.92;101616.53;4990616;28;109166;-67
2023/06/08 10:42:37;;;;;;;14.18;8.77;;;;;;;25.55;42.23;101618.94;4988967;28;123971;-67
2023/06/08 10:45:05;;;;;;;14.25;8.75;;;;;;;25.75;41.59;101611.59;4989248;28;123996;-67
2023/06/08 10:47:37;;;;;;;10.18;7.70;;;;;;;25.91;40.92;101620.94;4990253;28;109262;-67
2023/06/08 10:50:08;;;;;;;13.13;8.60;;;;;;;26.03;40.65;101614.31;4990091;28;108979;-67
2023/06/08 10:52:45;;;;;;;14.07;8.10;;;;;;;26.09;40.81;101608.28;4990160;28;125378;-67
2023/06/08 10:55:15;;;;;;;14.15;9.60;;;;;;;26.19;40.85;101614.50;4992148;28;123099;-67
2023/06/08 10:57:49;;;;;;;11.95;8.38;;;;;;;26.30;40.24;101602.56;4993231;28;109284;-67
2023/06/08 11:00:26;;;;;;;14.38;8.93;;;;;;;26.39;40.58;101603.50;4991090;28;109469;-67
2023/06/08 11:02:57;;;;;;;17.20;8.82;;;;;;;26.49;39.93;101598.00;4990247;28;124768;-67
2023/06/08 11:05:28;;;;;;;18.92;9.23;;;;;;;26.57;40.18;101590.78;4988920;28;124860;-67
2023/06/08 11:07:56;;;;;;;13.10;8.63;;;;;;;26.69;40.02;101593.28;4990880;28;109256;-67
2023/06/08 11:10:23;;;;;;;14.18;8.77;;;;;;;26.78;39.58;101589.63;4991818;28;108750;-67
2023/06/08 11:12:51;;;;;;;13.00;8.13;;;;;;;26.86;39.80;101592.44;4985289;28;124055;-67
2023/06/08 11:15:18;;;;;;;13.52;8.55;;;;;;;26.94;39.35;101581.59;4982458;28;124403;-67
2023/06/08 11:17:58;;;;;;;14.50;8.73;;;;;;;27.03;39.61;101585.25;4984763;28;109432;-67